sensor_id;sensor_type;location;lat;lon;timestamp;pressure;altitude;pressure_sealevel;temperature;humidity
76994;BME280;66749;47.406;18.822;2024-01-15T00:00:23;99260.50;;;-1.46;84.41
76994;BME280;66749;47.406;18.822;2024-01-15T00:00:55;99265.56;;;-1.43;84.49
76994;BME280;66749;47.406;18.822;2024-01-15T00:01:27;99270.63;;;-1.42;84.29
76994;BME280;66749;47.406;18.822;2024-01-15T00:01:59;99262.03;;;-1.39;84.38
76994;BME280;66749;47.406;18.822;2024-01-15T00:02:31;99265.38;;;-1.37;84.87
76994;BME280;66749;47.406;18.822;2024-01-15T00:03:03;99253.47;;;-1.38;84.75
76994;BME280;66749;47.406;18.822;2024-01-15T00:03:35;99266.31;;;-1.40;85.03
76994;BME280;66749;47.406;18.822;2024-01-15T00:04:07;99262.88;;;-1.38;84.71
76994;BME280;66749;47.406;18.822;2024-01-15T00:04:40;99256.16;;;-1.43;85.00
76994;BME280;66749;47.406;18.822;2024-01-15T00:05:12;99256.91;;;-1.39;84.97
76994;BME280;66749;47.406;18.822;2024-01-15T00:05:43;99266.22;;;-1.36;84.54
76994;BME280;66749;47.406;18.822;2024-01-15T00:06:15;99264.47;;;-1.34;84.64
76994;BME280;66749;47.406;18.822;2024-01-15T00:06:48;99261.03;;;-1.33;84.90
76994;BME280;66749;47.406;18.822;2024-01-15T00:07:20;99265.25;;;-1.32;84.75
76994;BME280;66749;47.406;18.822;2024-01-15T00:07:52;99249.16;;;-1.36;84.35
76994;BME280;66749;47.406;18.822;2024-01-15T00:08:24;99250.84;;;-1.35;85.00
76994;BME280;66749;47.406;18.822;2024-01-15T00:08:56;99248.28;;;-1.35;85.03
76994;BME280;66749;47.406;18.822;2024-01-15T00:09:29;99246.47;;;-1.31;84.81
76994;BME280;66749;47.406;18.822;2024-01-15T00:10:02;99238.78;;;-1.31;85.08
76994;BME280;66749;47.406;18.822;2024-01-15T00:10:34;99237.88;;;-1.29;84.52
76994;BME280;66749;47.406;18.822;2024-01-15T00:11:05;99237.00;;;-1.28;84.51
76994;BME280;66749;47.406;18.822;2024-01-15T00:11:37;99240.34;;;-1.26;84.30
76994;BME280;66749;47.406;18.822;2024-01-15T00:12:09;99239.47;;;-1.25;84.23
76994;BME280;66749;47.406;18.822;2024-01-15T00:12:41;99231.00;;;-1.27;84.36
76994;BME280;66749;47.406;18.822;2024-01-15T00:13:13;99225.06;;;-1.29;84.71
76994;BME280;66749;47.406;18.822;2024-01-15T00:13:45;99229.34;;;-1.28;84.17
76994;BME280;66749;47.406;18.822;2024-01-15T00:14:17;99224.13;;;-1.25;84.41
76994;BME280;66749;47.406;18.822;2024-01-15T00:14:52;99232.59;;;-1.23;84.53
76994;BME280;66749;47.406;18.822;2024-01-15T00:15:23;99226.59;;;-1.22;84.67
76994;BME280;66749;47.406;18.822;2024-01-15T00:15:55;99218.06;;;-1.21;84.16
76994;BME280;66749;47.406;18.822;2024-01-15T00:16:27;99224.00;;;-1.20;84.12
76994;BME280;66749;47.406;18.822;2024-01-15T00:16:59;99224.84;;;-1.20;84.48
76994;BME280;66749;47.406;18.822;2024-01-15T00:17:31;99213.72;;;-1.19;84.05
76994;BME280;66749;47.406;18.822;2024-01-15T00:18:03;99208.59;;;-1.19;83.93
76994;BME280;66749;47.406;18.822;2024-01-15T00:18:35;99216.19;;;-1.16;84.11
76994;BME280;66749;47.406;18.822;2024-01-15T00:19:07;99212.75;;;-1.15;84.00
76994;BME280;66749;47.406;18.822;2024-01-15T00:19:39;99211.84;;;-1.14;84.51
76994;BME280;66749;47.406;18.822;2024-01-15T00:20:12;99207.59;;;-1.13;83.95
76994;BME280;66749;47.406;18.822;2024-01-15T00:20:44;99204.22;;;-1.15;84.65
76994;BME280;66749;47.406;18.822;2024-01-15T00:21:16;99207.59;;;-1.13;84.00
76994;BME280;66749;47.406;18.822;2024-01-15T00:21:47;99202.50;;;-1.15;84.36
76994;BME280;66749;47.406;18.822;2024-01-15T00:22:20;99206.75;;;-1.14;84.27
76994;BME280;66749;47.406;18.822;2024-01-15T00:22:51;99197.38;;;-1.13;84.16
76994;BME280;66749;47.406;18.822;2024-01-15T00:23:23;99204.13;;;-1.10;83.74
76994;BME280;66749;47.406;18.822;2024-01-15T00:23:55;99199.00;;;-1.10;83.66
76994;BME280;66749;47.406;18.822;2024-01-15T00:24:27;99196.44;;;-1.10;83.99
76994;BME280;66749;47.406;18.822;2024-01-15T00:24:59;99199.84;;;-1.10;83.69
76994;BME280;66749;47.406;18.822;2024-01-15T00:25:30;99202.38;;;-1.10;83.81
76994;BME280;66749;47.406;18.822;2024-01-15T00:26:02;99196.34;;;-1.07;83.87
76994;BME280;66749;47.406;18.822;2024-01-15T00:26:36;99198.94;;;-1.09;83.98
76994;BME280;66749;47.406;18.822;2024-01-15T00:27:08;99203.22;;;-1.09;84.03
76994;BME280;66749;47.406;18.822;2024-01-15T00:27:40;99190.44;;;-1.09;83.51
76994;BME280;66749;47.406;18.822;2024-01-15T00:28:12;99200.66;;;-1.09;83.86
76994;BME280;66749;47.406;18.822;2024-01-15T00:28:44;99196.34;;;-1.07;84.23
76994;BME280;66749;47.406;18.822;2024-01-15T00:29:16;99192.06;;;-1.07;83.39
76994;BME280;66749;47.406;18.822;2024-01-15T00:29:47;99191.16;;;-1.06;83.48
76994;BME280;66749;47.406;18.822;2024-01-15T00:30:19;99193.72;;;-1.06;83.80
76994;BME280;66749;47.406;18.822;2024-01-15T00:30:52;99193.72;;;-1.06;83.66
76994;BME280;66749;47.406;18.822;2024-01-15T00:31:24;99194.59;;;-1.05;83.62
76994;BME280;66749;47.406;18.822;2024-01-15T00:31:56;99191.22;;;-1.07;83.68
76994;BME280;66749;47.406;18.822;2024-01-15T00:32:28;99192.06;;;-1.07;83.20
76994;BME280;66749;47.406;18.822;2024-01-15T00:32:59;99196.34;;;-1.07;83.50
76994;BME280;66749;47.406;18.822;2024-01-15T00:33:31;99201.44;;;-1.07;83.01
76994;BME280;66749;47.406;18.822;2024-01-15T00:34:03;99193.00;;;-1.09;83.30
76994;BME280;66749;47.406;18.822;2024-01-15T00:34:35;99193.88;;;-1.10;82.68
76994;BME280;66749;47.406;18.822;2024-01-15T00:35:08;99197.22;;;-1.08;83.15
76994;BME280;66749;47.406;18.822;2024-01-15T00:35:40;99187.88;;;-1.09;83.28
76994;BME280;66749;47.406;18.822;2024-01-15T00:36:12;99182.75;;;-1.09;82.71
76994;BME280;66749;47.406;18.822;2024-01-15T00:36:46;99187.88;;;-1.09;82.75
76994;BME280;66749;47.406;18.822;2024-01-15T00:37:17;99188.69;;;-1.09;82.76
76994;BME280;66749;47.406;18.822;2024-01-15T00:37:49;99184.47;;;-1.10;83.10
76994;BME280;66749;47.406;18.822;2024-01-15T00:38:21;99179.41;;;-1.12;82.88
76994;BME280;66749;47.406;18.822;2024-01-15T00:38:53;99186.25;;;-1.12;82.49
76994;BME280;66749;47.406;18.822;2024-01-15T00:39:26;99184.53;;;-1.12;83.05
76994;BME280;66749;47.406;18.822;2024-01-15T00:39:58;99186.25;;;-1.12;83.00
76994;BME280;66749;47.406;18.822;2024-01-15T00:40:29;99183.69;;;-1.14;82.68
76994;BME280;66749;47.406;18.822;2024-01-15T00:41:01;99183.75;;;-1.15;82.55
76994;BME280;66749;47.406;18.822;2024-01-15T00:41:34;99186.25;;;-1.14;82.39
76994;BME280;66749;47.406;18.822;2024-01-15T00:42:06;99180.31;;;-1.14;82.92
76994;BME280;66749;47.406;18.822;2024-01-15T00:42:38;99186.34;;;-1.17;82.18
76994;BME280;66749;47.406;18.822;2024-01-15T00:43:10;99186.34;;;-1.17;82.98
76994;BME280;66749;47.406;18.822;2024-01-15T00:43:41;99181.34;;;-1.20;82.80
76994;BME280;66749;47.406;18.822;2024-01-15T00:44:13;99183.00;;;-1.19;82.99
76994;BME280;66749;47.406;18.822;2024-01-15T00:44:45;99186.47;;;-1.21;82.67
76994;BME280;66749;47.406;18.822;2024-01-15T00:45:17;99179.69;;;-1.22;82.71
76994;BME280;66749;47.406;18.822;2024-01-15T00:45:49;99183.97;;;-1.23;83.03
76994;BME280;66749;47.406;18.822;2024-01-15T00:46:21;99175.44;;;-1.23;82.88
76994;BME280;66749;47.406;18.822;2024-01-15T00:46:53;99175.50;;;-1.25;83.23
76994;BME280;66749;47.406;18.822;2024-01-15T00:47:25;99173.03;;;-1.28;82.72
76994;BME280;66749;47.406;18.822;2024-01-15T00:47:57;99171.34;;;-1.29;82.59
76994;BME280;66749;47.406;18.822;2024-01-15T00:48:31;99165.38;;;-1.28;82.98
76994;BME280;66749;47.406;18.822;2024-01-15T00:49:03;99173.03;;;-1.28;82.78
76994;BME280;66749;47.406;18.822;2024-01-15T00:49:35;99165.38;;;-1.29;83.26
76994;BME280;66749;47.406;18.822;2024-01-15T00:50:08;99170.47;;;-1.28;83.24
76994;BME280;66749;47.406;18.822;2024-01-15T00:50:40;99167.94;;;-1.28;83.45
76994;BME280;66749;47.406;18.822;2024-01-15T00:51:11;99175.63;;;-1.29;83.13
76994;BME280;66749;47.406;18.822;2024-01-15T00:51:43;99179.91;;;-1.30;82.67
76994;BME280;66749;47.406;18.822;2024-01-15T00:52:15;99177.34;;;-1.30;82.93
76994;BME280;66749;47.406;18.822;2024-01-15T00:52:47;99183.28;;;-1.29;83.25
76994;BME280;66749;47.406;18.822;2024-01-15T00:53:19;99180.00;;;-1.33;83.24
76994;BME280;66749;47.406;18.822;2024-01-15T00:53:53;99172.41;;;-1.36;83.19
76994;BME280;66749;47.406;18.822;2024-01-15T00:54:26;99176.72;;;-1.38;83.24
76994;BME280;66749;47.406;18.822;2024-01-15T00:54:58;99176.66;;;-1.36;82.76
76994;BME280;66749;47.406;18.822;2024-01-15T00:55:29;99171.56;;;-1.36;82.80
76994;BME280;66749;47.406;18.822;2024-01-15T00:56:01;99173.28;;;-1.37;82.87
76994;BME280;66749;47.406;18.822;2024-01-15T00:56:34;99174.97;;;-1.36;82.92
76994;BME280;66749;47.406;18.822;2024-01-15T00:57:06;99178.38;;;-1.35;82.73
76994;BME280;66749;47.406;18.822;2024-01-15T00:57:39;99175.81;;;-1.35;83.00
76994;BME280;66749;47.406;18.822;2024-01-15T00:58:11;99176.72;;;-1.38;83.50
76994;BME280;66749;47.406;18.822;2024-01-15T00:58:43;99175.88;;;-1.38;83.48
76994;BME280;66749;47.406;18.822;2024-01-15T00:59:15;99173.31;;;-1.38;82.73
76994;BME280;66749;47.406;18.822;2024-01-15T00:59:47;99175.09;;;-1.41;83.20
76994;BME280;66749;47.406;18.822;2024-01-15T01:00:19;99175.13;;;-1.42;83.06
76994;BME280;66749;47.406;18.822;2024-01-15T01:00:51;99173.41;;;-1.42;83.29
76994;BME280;66749;47.406;18.822;2024-01-15T01:01:23;99170.84;;;-1.42;83.08
76994;BME280;66749;47.406;18.822;2024-01-15T01:01:55;99167.41;;;-1.41;83.27
76994;BME280;66749;47.406;18.822;2024-01-15T01:02:27;99168.19;;;-1.38;83.16
76994;BME280;66749;47.406;18.822;2024-01-15T01:02:59;99162.19;;;-1.37;82.51
76994;BME280;66749;47.406;18.822;2024-01-15T01:03:31;99169.84;;;-1.36;83.43
76994;BME280;66749;47.406;18.822;2024-01-15T01:04:03;99167.31;;;-1.37;83.60
76994;BME280;66749;47.406;18.822;2024-01-15T01:04:35;99170.72;;;-1.37;82.98
76994;BME280;66749;47.406;18.822;2024-01-15T01:05:07;99173.28;;;-1.37;83.60
76994;BME280;66749;47.406;18.822;2024-01-15T01:05:39;99164.81;;;-1.39;82.97
76994;BME280;66749;47.406;18.822;2024-01-15T01:06:11;99164.91;;;-1.42;83.50
76994;BME280;66749;47.406;18.822;2024-01-15T01:06:43;99171.84;;;-1.47;83.63
76994;BME280;66749;47.406;18.822;2024-01-15T01:07:15;99169.38;;;-1.50;83.50
76994;BME280;66749;47.406;18.822;2024-01-15T01:07:47;99169.41;;;-1.52;82.78
76994;BME280;66749;47.406;18.822;2024-01-15T01:08:19;99171.97;;;-1.52;83.62
76994;BME280;66749;47.406;18.822;2024-01-15T01:08:50;99171.19;;;-1.54;83.55
76994;BME280;66749;47.406;18.822;2024-01-15T01:09:22;99165.44;;;-1.62;83.45
76994;BME280;66749;47.406;18.822;2024-01-15T01:09:55;99176.53;;;-1.63;83.43
76994;BME280;66749;47.406;18.822;2024-01-15T01:10:27;99175.75;;;-1.65;83.68
76994;BME280;66749;47.406;18.822;2024-01-15T01:10:59;99169.75;;;-1.64;83.26
76994;BME280;66749;47.406;18.822;2024-01-15T01:11:31;99162.88;;;-1.62;83.40
76994;BME280;66749;47.406;18.822;2024-01-15T01:12:03;99166.25;;;-1.61;83.58
76994;BME280;66749;47.406;18.822;2024-01-15T01:12:35;99164.53;;;-1.61;83.25
76994;BME280;66749;47.406;18.822;2024-01-15T01:13:06;99173.94;;;-1.61;83.28
76994;BME280;66749;47.406;18.822;2024-01-15T01:13:38;99173.06;;;-1.60;83.51
76994;BME280;66749;47.406;18.822;2024-01-15T01:14:10;99168.81;;;-1.61;83.46
76994;BME280;66749;47.406;18.822;2024-01-15T01:14:42;99176.66;;;-1.68;84.03
76994;BME280;66749;47.406;18.822;2024-01-15T01:15:14;99176.78;;;-1.72;83.18
76994;BME280;66749;47.406;18.822;2024-01-15T01:15:46;99164.06;;;-1.74;83.64
76994;BME280;66749;47.406;18.822;2024-01-15T01:16:18;99170.91;;;-1.76;83.33
76994;BME280;66749;47.406;18.822;2024-01-15T01:16:50;99164.94;;;-1.76;84.04
76994;BME280;66749;47.406;18.822;2024-01-15T01:17:22;99164.94;;;-1.76;83.55
76994;BME280;66749;47.406;18.822;2024-01-15T01:17:54;99157.22;;;-1.75;84.03
76994;BME280;66749;47.406;18.822;2024-01-15T01:18:26;99158.06;;;-1.74;83.83
76994;BME280;66749;47.406;18.822;2024-01-15T01:18:58;99162.31;;;-1.73;83.63
76994;BME280;66749;47.406;18.822;2024-01-15T01:19:30;99158.06;;;-1.74;83.98
76994;BME280;66749;47.406;18.822;2024-01-15T01:20:03;99162.44;;;-1.78;83.99
76994;BME280;66749;47.406;18.822;2024-01-15T01:20:37;99165.94;;;-1.80;83.25
76994;BME280;66749;47.406;18.822;2024-01-15T01:21:10;99163.44;;;-1.83;83.10
76994;BME280;66749;47.406;18.822;2024-01-15T01:21:41;99166.88;;;-1.84;83.40
76994;BME280;66749;47.406;18.822;2024-01-15T01:22:13;99165.19;;;-1.85;84.26
76994;BME280;66749;47.406;18.822;2024-01-15T01:22:45;99167.78;;;-1.87;83.49
76994;BME280;66749;47.406;18.822;2024-01-15T01:23:17;99159.25;;;-1.86;83.31
76994;BME280;66749;47.406;18.822;2024-01-15T01:23:49;99166.06;;;-1.86;83.64
76994;BME280;66749;47.406;18.822;2024-01-15T01:24:21;99160.13;;;-1.87;83.53
76994;BME280;66749;47.406;18.822;2024-01-15T01:24:53;99156.69;;;-1.86;84.10
76994;BME280;66749;47.406;18.822;2024-01-15T01:25:25;99160.91;;;-1.85;84.12
76994;BME280;66749;47.406;18.822;2024-01-15T01:25:56;99160.06;;;-1.85;84.18
76994;BME280;66749;47.406;18.822;2024-01-15T01:26:28;99159.25;;;-1.86;83.56
76994;BME280;66749;47.406;18.822;2024-01-15T01:27:00;99156.63;;;-1.84;83.57
76994;BME280;66749;47.406;18.822;2024-01-15T01:27:32;99148.91;;;-1.83;84.03
76994;BME280;66749;47.406;18.822;2024-01-15T01:28:04;99143.81;;;-1.83;83.84
76994;BME280;66749;47.406;18.822;2024-01-15T01:28:36;99148.91;;;-1.83;83.45
76994;BME280;66749;47.406;18.822;2024-01-15T01:29:08;99145.47;;;-1.82;83.31
76994;BME280;66749;47.406;18.822;2024-01-15T01:29:40;99148.03;;;-1.80;84.20
76994;BME280;66749;47.406;18.822;2024-01-15T01:30:12;99149.75;;;-1.82;83.85
76994;BME280;66749;47.406;18.822;2024-01-15T01:30:44;99150.59;;;-1.82;84.06
76994;BME280;66749;47.406;18.822;2024-01-15T01:31:16;99149.81;;;-1.84;83.34
76994;BME280;66749;47.406;18.822;2024-01-15T01:31:48;99151.47;;;-1.83;83.40
76994;BME280;66749;47.406;18.822;2024-01-15T01:32:20;99152.31;;;-1.81;83.78
76994;BME280;66749;47.406;18.822;2024-01-15T01:32:52;99148.88;;;-1.80;83.70
76994;BME280;66749;47.406;18.822;2024-01-15T01:33:24;99151.47;;;-1.83;83.24
76994;BME280;66749;47.406;18.822;2024-01-15T01:33:56;99149.75;;;-1.81;83.40
76994;BME280;66749;47.406;18.822;2024-01-15T01:34:28;99141.16;;;-1.78;82.94
76994;BME280;66749;47.406;18.822;2024-01-15T01:35:05;99140.31;;;-1.79;83.57
76994;BME280;66749;47.406;18.822;2024-01-15T01:35:36;99142.91;;;-1.80;83.05
76994;BME280;66749;47.406;18.822;2024-01-15T01:36:09;99150.53;;;-1.79;83.24
76994;BME280;66749;47.406;18.822;2024-01-15T01:36:42;99144.53;;;-1.78;83.47
76994;BME280;66749;47.406;18.822;2024-01-15T01:37:14;99147.19;;;-1.81;83.43
76994;BME280;66749;47.406;18.822;2024-01-15T01:37:46;99136.97;;;-1.81;83.70
76994;BME280;66749;47.406;18.822;2024-01-15T01:38:18;99133.59;;;-1.83;83.62
76994;BME280;66749;47.406;18.822;2024-01-15T01:38:50;99136.06;;;-1.80;83.42
76994;BME280;66749;47.406;18.822;2024-01-15T01:39:22;99128.41;;;-1.80;83.16
76994;BME280;66749;47.406;18.822;2024-01-15T01:39:54;99130.09;;;-1.79;83.09
76994;BME280;66749;47.406;18.822;2024-01-15T01:40:26;99130.16;;;-1.82;83.23
76994;BME280;66749;47.406;18.822;2024-01-15T01:40:58;99128.47;;;-1.83;83.85
76994;BME280;66749;47.406;18.822;2024-01-15T01:41:30;99124.28;;;-1.85;83.49
76994;BME280;66749;47.406;18.822;2024-01-15T01:42:01;99138.78;;;-1.86;83.37
76994;BME280;66749;47.406;18.822;2024-01-15T01:42:33;99141.31;;;-1.84;83.67
76994;BME280;66749;47.406;18.822;2024-01-15T01:43:05;99140.38;;;-1.82;83.29
76994;BME280;66749;47.406;18.822;2024-01-15T01:43:37;99123.34;;;-1.83;83.75
76994;BME280;66749;47.406;18.822;2024-01-15T01:44:09;99129.34;;;-1.84;84.17
76994;BME280;66749;47.406;18.822;2024-01-15T01:44:40;99120.81;;;-1.83;83.43
76994;BME280;66749;47.406;18.822;2024-01-15T01:45:13;99113.97;;;-1.82;83.43
76994;BME280;66749;47.406;18.822;2024-01-15T01:45:44;99115.69;;;-1.81;84.15
76994;BME280;66749;47.406;18.822;2024-01-15T01:46:17;99119.91;;;-1.82;83.87
76994;BME280;66749;47.406;18.822;2024-01-15T01:46:49;99125.09;;;-1.83;83.78
76994;BME280;66749;47.406;18.822;2024-01-15T01:47:21;99121.69;;;-1.84;83.19
76994;BME280;66749;47.406;18.822;2024-01-15T01:47:53;99114.91;;;-1.85;82.93
76994;BME280;66749;47.406;18.822;2024-01-15T01:48:25;99105.56;;;-1.86;83.26
76994;BME280;66749;47.406;18.822;2024-01-15T01:48:58;99103.84;;;-1.85;82.84
76994;BME280;66749;47.406;18.822;2024-01-15T01:49:33;99098.00;;;-1.90;83.11
76994;BME280;66749;47.406;18.822;2024-01-15T01:50:08;99097.16;;;-1.91;83.58
76994;BME280;66749;47.406;18.822;2024-01-15T01:50:39;99095.50;;;-1.92;83.11
76994;BME280;66749;47.406;18.822;2024-01-15T01:51:12;99103.94;;;-1.90;82.97
76994;BME280;66749;47.406;18.822;2024-01-15T01:51:44;99107.44;;;-1.92;83.04
76994;BME280;66749;47.406;18.822;2024-01-15T01:52:16;99103.31;;;-1.98;82.56
76994;BME280;66749;47.406;18.822;2024-01-15T01:52:48;99105.91;;;-2.00;82.87
76994;BME280;66749;47.406;18.822;2024-01-15T01:53:21;99103.41;;;-2.01;82.81
76994;BME280;66749;47.406;18.822;2024-01-15T01:53:53;99099.97;;;-2.00;82.90
76994;BME280;66749;47.406;18.822;2024-01-15T01:54:29;99096.53;;;-1.99;82.52
76994;BME280;66749;47.406;18.822;2024-01-15T01:55:04;99097.53;;;-2.05;83.72
76994;BME280;66749;47.406;18.822;2024-01-15T01:55:38;99097.69;;;-2.11;84.25
76994;BME280;66749;47.406;18.822;2024-01-15T01:56:10;99091.75;;;-2.11;83.88
76994;BME280;66749;47.406;18.822;2024-01-15T01:56:43;99099.38;;;-2.10;83.48
76994;BME280;66749;47.406;18.822;2024-01-15T01:57:16;99096.69;;;-2.05;84.63
76994;BME280;66749;47.406;18.822;2024-01-15T01:57:50;99090.78;;;-2.07;83.74
76994;BME280;66749;47.406;18.822;2024-01-15T01:58:22;99097.53;;;-2.05;83.62
76994;BME280;66749;47.406;18.822;2024-01-15T01:58:54;99091.56;;;-2.05;83.73
76994;BME280;66749;47.406;18.822;2024-01-15T01:59:27;99101.16;;;-2.13;83.64
76994;BME280;66749;47.406;18.822;2024-01-15T01:59:59;99096.94;;;-2.14;83.28
76994;BME280;66749;47.406;18.822;2024-01-15T02:00:33;99107.16;;;-2.14;84.05
76994;BME280;66749;47.406;18.822;2024-01-15T02:01:07;99109.69;;;-2.14;83.43
76994;BME280;66749;47.406;18.822;2024-01-15T02:01:40;99099.56;;;-2.17;82.89
76994;BME280;66749;47.406;18.822;2024-01-15T02:02:13;99098.84;;;-2.22;82.75
76994;BME280;66749;47.406;18.822;2024-01-15T02:02:45;99094.66;;;-2.25;83.49
76994;BME280;66749;47.406;18.822;2024-01-15T02:03:17;99088.72;;;-2.26;82.65
76994;BME280;66749;47.406;18.822;2024-01-15T02:03:49;99092.22;;;-2.30;83.68
76994;BME280;66749;47.406;18.822;2024-01-15T02:04:24;99091.41;;;-2.32;83.49
76994;BME280;66749;47.406;18.822;2024-01-15T02:04:56;99089.59;;;-2.27;83.31
76994;BME280;66749;47.406;18.822;2024-01-15T02:05:28;99092.97;;;-2.26;83.73
76994;BME280;66749;47.406;18.822;2024-01-15T02:06:01;99088.72;;;-2.26;84.12
76994;BME280;66749;47.406;18.822;2024-01-15T02:06:33;99090.38;;;-2.25;83.44
76994;BME280;66749;47.406;18.822;2024-01-15T02:07:06;99091.19;;;-2.22;84.16
76994;BME280;66749;47.406;18.822;2024-01-15T02:07:38;99089.41;;;-2.20;83.54
76994;BME280;66749;47.406;18.822;2024-01-15T02:08:10;99090.28;;;-2.21;84.08
76994;BME280;66749;47.406;18.822;2024-01-15T02:08:43;99097.06;;;-2.20;83.87
76994;BME280;66749;47.406;18.822;2024-01-15T02:09:15;99095.41;;;-2.21;84.73
76994;BME280;66749;47.406;18.822;2024-01-15T02:09:47;99094.53;;;-2.20;84.00
76994;BME280;66749;47.406;18.822;2024-01-15T02:10:19;99102.19;;;-2.20;84.53
76994;BME280;66749;47.406;18.822;2024-01-15T02:10:51;99098.78;;;-2.21;84.46
76994;BME280;66749;47.406;18.822;2024-01-15T02:11:23;99095.34;;;-2.20;83.72
76994;BME280;66749;47.406;18.822;2024-01-15T02:11:55;99098.84;;;-2.22;83.64
76994;BME280;66749;47.406;18.822;2024-01-15T02:12:27;99097.31;;;-2.30;84.18
76994;BME280;66749;47.406;18.822;2024-01-15T02:12:59;99107.63;;;-2.33;82.84
76994;BME280;66749;47.406;18.822;2024-01-15T02:13:31;99104.34;;;-2.38;82.99
76994;BME280;66749;47.406;18.822;2024-01-15T02:14:03;99107.75;;;-2.39;83.53
76994;BME280;66749;47.406;18.822;2024-01-15T02:14:35;99110.28;;;-2.37;83.50
76994;BME280;66749;47.406;18.822;2024-01-15T02:15:07;99103.59;;;-2.41;83.84
76994;BME280;66749;47.406;18.822;2024-01-15T02:15:39;99106.16;;;-2.43;83.54
76994;BME280;66749;47.406;18.822;2024-01-15T02:16:11;99103.59;;;-2.43;82.95
76994;BME280;66749;47.406;18.822;2024-01-15T02:16:43;99097.59;;;-2.40;83.32
76994;BME280;66749;47.406;18.822;2024-01-15T02:17:15;99087.34;;;-2.39;83.12
76994;BME280;66749;47.406;18.822;2024-01-15T02:18:01;99084.81;;;-2.40;83.49
76994;BME280;66749;47.406;18.822;2024-01-15T02:18:44;99084.78;;;-2.39;83.04
76994;BME280;66749;47.406;18.822;2024-01-15T02:19:16;99082.22;;;-2.39;83.39
76994;BME280;66749;47.406;18.822;2024-01-15T02:19:49;99087.25;;;-2.36;83.60
76994;BME280;66749;47.406;18.822;2024-01-15T02:20:22;99094.91;;;-2.36;83.60
76994;BME280;66749;47.406;18.822;2024-01-15T02:20:54;99089.00;;;-2.38;82.84
76994;BME280;66749;47.406;18.822;2024-01-15T02:21:26;99092.50;;;-2.42;82.77
76994;BME280;66749;47.406;18.822;2024-01-15T02:22:00;99091.78;;;-2.47;82.59
76994;BME280;66749;47.406;18.822;2024-01-15T02:22:32;99092.69;;;-2.48;82.73
76994;BME280;66749;47.406;18.822;2024-01-15T02:23:10;99093.47;;;-2.46;83.58
76994;BME280;66749;47.406;18.822;2024-01-15T02:23:42;99090.91;;;-2.46;82.49
76994;BME280;66749;47.406;18.822;2024-01-15T02:24:14;99091.00;;;-2.51;82.54
76994;BME280;66749;47.406;18.822;2024-01-15T02:24:46;99081.72;;;-2.53;82.96
76994;BME280;66749;47.406;18.822;2024-01-15T02:25:18;99080.03;;;-2.54;82.45
76994;BME280;66749;47.406;18.822;2024-01-15T02:25:51;99071.59;;;-2.56;82.91
76994;BME280;66749;47.406;18.822;2024-01-15T02:26:23;99079.25;;;-2.56;82.36
76994;BME280;66749;47.406;18.822;2024-01-15T02:26:55;99075.78;;;-2.54;82.41
76994;BME280;66749;47.406;18.822;2024-01-15T02:27:26;99078.28;;;-2.52;82.45
76994;BME280;66749;47.406;18.822;2024-01-15T02:27:58;99080.84;;;-2.52;83.00
76994;BME280;66749;47.406;18.822;2024-01-15T02:28:31;99076.56;;;-2.52;82.14
76994;BME280;66749;47.406;18.822;2024-01-15T02:29:06;99078.28;;;-2.52;83.06
76994;BME280;66749;47.406;18.822;2024-01-15T02:29:39;99074.00;;;-2.52;82.30
76994;BME280;66749;47.406;18.822;2024-01-15T02:30:13;99077.41;;;-2.51;82.74
76994;BME280;66749;47.406;18.822;2024-01-15T02:30:45;99074.00;;;-2.52;82.68
76994;BME280;66749;47.406;18.822;2024-01-15T02:31:17;99077.56;;;-2.57;82.03
76994;BME280;66749;47.406;18.822;2024-01-15T02:31:49;99072.63;;;-2.63;82.29
76994;BME280;66749;47.406;18.822;2024-01-15T02:32:21;99072.66;;;-2.66;82.46
76994;BME280;66749;47.406;18.822;2024-01-15T02:32:53;99082.19;;;-2.73;82.66
76994;BME280;66749;47.406;18.822;2024-01-15T02:33:25;99073.69;;;-2.73;81.60
76994;BME280;66749;47.406;18.822;2024-01-15T02:33:57;99060.94;;;-2.73;82.32
76994;BME280;66749;47.406;18.822;2024-01-15T02:34:34;99066.13;;;-2.76;82.46
76994;BME280;66749;47.406;18.822;2024-01-15T02:35:06;99063.47;;;-2.72;81.83
76994;BME280;66749;47.406;18.822;2024-01-15T02:35:38;99070.25;;;-2.72;82.32
76994;BME280;66749;47.406;18.822;2024-01-15T02:36:10;99064.31;;;-2.73;81.69
76994;BME280;66749;47.406;18.822;2024-01-15T02:36:42;99060.13;;;-2.75;81.68
76994;BME280;66749;47.406;18.822;2024-01-15T02:37:14;99055.00;;;-2.74;81.85
76994;BME280;66749;47.406;18.822;2024-01-15T02:37:46;99053.25;;;-2.72;82.29
76994;BME280;66749;47.406;18.822;2024-01-15T02:38:18;99054.09;;;-2.71;81.42
76994;BME280;66749;47.406;18.822;2024-01-15T02:38:50;99043.88;;;-2.71;82.00
76994;BME280;66749;47.406;18.822;2024-01-15T02:39:22;99050.72;;;-2.72;81.90
76994;BME280;66749;47.406;18.822;2024-01-15T02:39:54;99044.72;;;-2.71;82.70
76994;BME280;66749;47.406;18.822;2024-01-15T02:40:26;99038.69;;;-2.68;82.65
76994;BME280;66749;47.406;18.822;2024-01-15T02:40:58;99039.56;;;-2.69;82.45
76994;BME280;66749;47.406;18.822;2024-01-15T02:41:30;99043.72;;;-2.65;83.34
76994;BME280;66749;47.406;18.822;2024-01-15T02:42:02;99034.34;;;-2.65;82.97
76994;BME280;66749;47.406;18.822;2024-01-15T02:42:34;99034.41;;;-2.68;83.08
76994;BME280;66749;47.406;18.822;2024-01-15T02:43:06;99040.31;;;-2.64;83.23
76994;BME280;66749;47.406;18.822;2024-01-15T02:43:38;99042.78;;;-2.61;83.30
76994;BME280;66749;47.406;18.822;2024-01-15T02:44:10;99048.75;;;-2.62;82.64
76994;BME280;66749;47.406;18.822;2024-01-15T02:44:41;99053.88;;;-2.62;83.49
76994;BME280;66749;47.406;18.822;2024-01-15T02:45:13;99058.13;;;-2.63;83.39
76994;BME280;66749;47.406;18.822;2024-01-15T02:45:45;99060.66;;;-2.61;83.17
76994;BME280;66749;47.406;18.822;2024-01-15T02:46:18;99069.22;;;-2.64;82.33
76994;BME280;66749;47.406;18.822;2024-01-15T02:46:50;99079.59;;;-2.70;82.30
76994;BME280;66749;47.406;18.822;2024-01-15T02:47:22;99086.53;;;-2.76;82.23
76994;BME280;66749;47.406;18.822;2024-01-15T02:47:54;99090.84;;;-2.80;81.47
76994;BME280;66749;47.406;18.822;2024-01-15T02:48:26;99090.09;;;-2.84;81.68
76994;BME280;66749;47.406;18.822;2024-01-15T02:48:58;99083.31;;;-2.85;80.85